sensor_id;sensor_type;location;lat;lon;timestamp;temperature;humidity
40622;DHT22;26324;52.040;11.528;2023-03-16T00:00:18;-3276.10;85.00
40622;DHT22;26324;52.040;11.528;2023-03-16T00:02:46;-3276.10;85.00
40622;DHT22;26324;52.040;11.528;2023-03-16T00:05:13;-3276.00;85.00
40622;DHT22;26324;52.040;11.528;2023-03-16T00:07:42;-3276.00;85.40
40622;DHT22;26324;52.040;11.528;2023-03-16T00:10:13;-3275.90;85.40
40622;DHT22;26324;52.040;11.528;2023-03-16T00:12:40;-3275.80;85.40
40622;DHT22;26324;52.040;11.528;2023-03-16T00:15:11;-3275.90;85.60
40622;DHT22;26324;52.040;11.528;2023-03-16T00:17:38;-3275.80;85.50
40622;DHT22;26324;52.040;11.528;2023-03-16T00:20:06;-3275.80;85.80
40622;DHT22;26324;52.040;11.528;2023-03-16T00:22:33;-3275.80;85.80
40622;DHT22;26324;52.040;11.528;2023-03-16T00:25:01;-3275.80;85.80
40622;DHT22;26324;52.040;11.528;2023-03-16T00:27:28;-3275.80;85.60
40622;DHT22;26324;52.040;11.528;2023-03-16T00:29:55;-3275.70;85.50
40622;DHT22;26324;52.040;11.528;2023-03-16T00:32:34;-3275.70;85.60
40622;DHT22;26324;52.040;11.528;2023-03-16T00:35:03;-3275.70;85.40
40622;DHT22;26324;52.040;11.528;2023-03-16T00:37:36;-3275.60;85.40
40622;DHT22;26324;52.040;11.528;2023-03-16T00:40:05;-3275.50;85.60
40622;DHT22;26324;52.040;11.528;2023-03-16T00:42:34;-3275.50;85.20
40622;DHT22;26324;52.040;11.528;2023-03-16T00:45:01;-3275.50;85.40
40622;DHT22;26324;52.040;11.528;2023-03-16T00:47:30;-3275.50;85.60
40622;DHT22;26324;52.040;11.528;2023-03-16T00:49:59;-3275.60;85.70
40622;DHT22;26324;52.040;11.528;2023-03-16T00:52:27;-3275.70;85.10
40622;DHT22;26324;52.040;11.528;2023-03-16T00:54:57;-3275.70;85.00
40622;DHT22;26324;52.040;11.528;2023-03-16T00:57:25;-3275.60;84.90
40622;DHT22;26324;52.040;11.528;2023-03-16T00:59:54;-3275.60;85.10
40622;DHT22;26324;52.040;11.528;2023-03-16T01:02:22;-3275.60;85.10
40622;DHT22;26324;52.040;11.528;2023-03-16T01:04:51;-3275.70;85.00
40622;DHT22;26324;52.040;11.528;2023-03-16T01:07:21;-3275.70;84.70
40622;DHT22;26324;52.040;11.528;2023-03-16T01:09:50;-3275.60;84.60
40622;DHT22;26324;52.040;11.528;2023-03-16T01:12:18;-3275.60;84.50
40622;DHT22;26324;52.040;11.528;2023-03-16T01:14:46;-3275.60;84.50
40622;DHT22;26324;52.040;11.528;2023-03-16T01:17:16;-3275.70;84.40
40622;DHT22;26324;52.040;11.528;2023-03-16T01:19:45;-3275.70;83.90
40622;DHT22;26324;52.040;11.528;2023-03-16T01:22:13;-3275.80;83.90
40622;DHT22;26324;52.040;11.528;2023-03-16T01:24:42;-3275.70;84.00
40622;DHT22;26324;52.040;11.528;2023-03-16T01:27:13;-3275.60;84.50
40622;DHT22;26324;52.040;11.528;2023-03-16T01:29:41;-3275.60;84.80
40622;DHT22;26324;52.040;11.528;2023-03-16T01:32:10;-3275.50;84.90
40622;DHT22;26324;52.040;11.528;2023-03-16T01:34:38;-3275.50;84.70
40622;DHT22;26324;52.040;11.528;2023-03-16T01:37:06;-3275.50;85.00
40622;DHT22;26324;52.040;11.528;2023-03-16T01:39:47;-3275.60;84.70
40622;DHT22;26324;52.040;11.528;2023-03-16T01:42:15;-3275.60;84.70
40622;DHT22;26324;52.040;11.528;2023-03-16T01:44:55;-3275.50;84.70
40622;DHT22;26324;52.040;11.528;2023-03-16T01:47:29;-3275.40;85.40
40622;DHT22;26324;52.040;11.528;2023-03-16T01:49:57;-3275.30;85.90
40622;DHT22;26324;52.040;11.528;2023-03-16T01:52:32;-3275.40;85.90
40622;DHT22;26324;52.040;11.528;2023-03-16T01:55:05;-3275.30;85.70
40622;DHT22;26324;52.040;11.528;2023-03-16T01:57:38;-3275.30;85.90
40622;DHT22;26324;52.040;11.528;2023-03-16T02:00:14;-3275.40;85.80
40622;DHT22;26324;52.040;11.528;2023-03-16T02:03:07;-3275.40;85.80
40622;DHT22;26324;52.040;11.528;2023-03-16T02:06:11;-3275.50;85.80
40622;DHT22;26324;52.040;11.528;2023-03-16T02:08:46;-3275.50;85.20
40622;DHT22;26324;52.040;11.528;2023-03-16T02:11:15;-3275.50;85.30
40622;DHT22;26324;52.040;11.528;2023-03-16T02:14:11;-3275.40;85.40
40622;DHT22;26324;52.040;11.528;2023-03-16T02:16:40;-3275.40;85.60
40622;DHT22;26324;52.040;11.528;2023-03-16T02:19:13;-3275.30;85.60
40622;DHT22;26324;52.040;11.528;2023-03-16T02:21:56;-3275.30;85.50
40622;DHT22;26324;52.040;11.528;2023-03-16T02:24:25;-3275.20;85.60
40622;DHT22;26324;52.040;11.528;2023-03-16T02:26:59;-3275.20;85.30
40622;DHT22;26324;52.040;11.528;2023-03-16T02:32:35;-3275.10;85.00
40622;DHT22;26324;52.040;11.528;2023-03-16T02:35:04;-3275.00;84.80
40622;DHT22;26324;52.040;11.528;2023-03-16T02:37:32;-3274.90;84.60
40622;DHT22;26324;52.040;11.528;2023-03-16T02:40:00;-3275.00;84.50
40622;DHT22;26324;52.040;11.528;2023-03-16T02:42:30;-3275.00;84.70
40622;DHT22;26324;52.040;11.528;2023-03-16T02:44:59;-3275.00;84.80
40622;DHT22;26324;52.040;11.528;2023-03-16T02:47:41;-3274.90;85.40
40622;DHT22;26324;52.040;11.528;2023-03-16T02:50:11;-3274.90;85.30
40622;DHT22;26324;52.040;11.528;2023-03-16T02:52:38;-3275.10;84.70
40622;DHT22;26324;52.040;11.528;2023-03-16T02:55:08;-3275.20;84.20
40622;DHT22;26324;52.040;11.528;2023-03-16T02:57:35;-3275.20;83.90
40622;DHT22;26324;52.040;11.528;2023-03-16T03:00:09;-3275.20;83.90
40622;DHT22;26324;52.040;11.528;2023-03-16T03:02:44;-3275.20;83.90
40622;DHT22;26324;52.040;11.528;2023-03-16T03:05:12;-3275.10;83.80
40622;DHT22;26324;52.040;11.528;2023-03-16T03:07:39;-3274.90;83.80
40622;DHT22;26324;52.040;11.528;2023-03-16T03:10:07;-3274.70;84.50
40622;DHT22;26324;52.040;11.528;2023-03-16T03:12:35;-3274.60;85.70
40622;DHT22;26324;52.040;11.528;2023-03-16T03:15:06;-3274.50;86.00
40622;DHT22;26324;52.040;11.528;2023-03-16T03:17:42;-3274.40;86.30
40622;DHT22;26324;52.040;11.528;2023-03-16T03:20:11;-3274.40;86.50
40622;DHT22;26324;52.040;11.528;2023-03-16T03:22:45;-3274.40;86.20
40622;DHT22;26324;52.040;11.528;2023-03-16T03:25:14;-3274.40;86.20
40622;DHT22;26324;52.040;11.528;2023-03-16T03:27:42;-3274.50;86.60
40622;DHT22;26324;52.040;11.528;2023-03-16T03:30:16;-3274.50;85.80
40622;DHT22;26324;52.040;11.528;2023-03-16T03:32:44;-3274.50;85.80
40622;DHT22;26324;52.040;11.528;2023-03-16T03:35:13;-3274.60;85.60
40622;DHT22;26324;52.040;11.528;2023-03-16T03:37:42;-3274.70;85.50
40622;DHT22;26324;52.040;11.528;2023-03-16T03:40:15;-3274.70;85.10
40622;DHT22;26324;52.040;11.528;2023-03-16T03:42:46;-3274.70;85.20
40622;DHT22;26324;52.040;11.528;2023-03-16T03:45:14;-3274.70;84.80
40622;DHT22;26324;52.040;11.528;2023-03-16T03:47:42;-3274.50;84.70
40622;DHT22;26324;52.040;11.528;2023-03-16T03:50:14;-3274.50;85.10
40622;DHT22;26324;52.040;11.528;2023-03-16T03:52:58;-3274.40;85.30
40622;DHT22;26324;52.040;11.528;2023-03-16T03:55:29;-3274.40;85.30
40622;DHT22;26324;52.040;11.528;2023-03-16T03:57:56;-3274.40;85.50
40622;DHT22;26324;52.040;11.528;2023-03-16T04:00:23;-3274.30;84.90
40622;DHT22;26324;52.040;11.528;2023-03-16T04:02:51;-3274.20;85.10
40622;DHT22;26324;52.040;11.528;2023-03-16T04:05:26;-3274.20;85.10
40622;DHT22;26324;52.040;11.528;2023-03-16T04:07:54;-3274.20;85.30
40622;DHT22;26324;52.040;11.528;2023-03-16T04:10:24;-3274.20;85.30
40622;DHT22;26324;52.040;11.528;2023-03-16T04:12:51;-3274.10;85.10
40622;DHT22;26324;52.040;11.528;2023-03-16T04:15:18;-3274.10;85.20
40622;DHT22;26324;52.040;11.528;2023-03-16T04:17:58;-3274.00;85.20
40622;DHT22;26324;52.040;11.528;2023-03-16T04:20:25;-3274.10;85.40
40622;DHT22;26324;52.040;11.528;2023-03-16T04:22:53;-3274.00;85.30
40622;DHT22;26324;52.040;11.528;2023-03-16T04:25:26;-3273.90;85.60
40622;DHT22;26324;52.040;11.528;2023-03-16T04:27:54;-3273.90;86.00
40622;DHT22;26324;52.040;11.528;2023-03-16T04:30:24;-3273.80;85.90
40622;DHT22;26324;52.040;11.528;2023-03-16T04:32:58;-3273.90;85.90
40622;DHT22;26324;52.040;11.528;2023-03-16T04:35:25;-3274.00;85.80
40622;DHT22;26324;52.040;11.528;2023-03-16T04:37:56;-3274.10;85.80
40622;DHT22;26324;52.040;11.528;2023-03-16T04:40:31;-3274.20;85.70
40622;DHT22;26324;52.040;11.528;2023-03-16T04:43:06;-3274.20;85.40
40622;DHT22;26324;52.040;11.528;2023-03-16T04:45:34;-3274.10;85.30
40622;DHT22;26324;52.040;11.528;2023-03-16T04:48:01;-3274.10;85.20
40622;DHT22;26324;52.040;11.528;2023-03-16T04:50:29;-3274.00;85.00
40622;DHT22;26324;52.040;11.528;2023-03-16T04:52:57;-3274.00;86.10
40622;DHT22;26324;52.040;11.528;2023-03-16T04:55:25;-3274.00;86.70
40622;DHT22;26324;52.040;11.528;2023-03-16T04:57:52;-3274.00;86.80
40622;DHT22;26324;52.040;11.528;2023-03-16T05:00:22;-3274.00;86.80
40622;DHT22;26324;52.040;11.528;2023-03-16T05:02:57;-3274.00;86.90
40622;DHT22;26324;52.040;11.528;2023-03-16T05:05:27;-3274.00;87.10
40622;DHT22;26324;52.040;11.528;2023-03-16T05:07:55;-3274.00;86.80
40622;DHT22;26324;52.040;11.528;2023-03-16T05:10:24;-3274.10;86.80
40622;DHT22;26324;52.040;11.528;2023-03-16T05:12:52;-3274.10;86.60
40622;DHT22;26324;52.040;11.528;2023-03-16T05:15:20;-3274.10;86.70
40622;DHT22;26324;52.040;11.528;2023-03-16T05:17:58;-3274.10;86.80
40622;DHT22;26324;52.040;11.528;2023-03-16T05:20:25;-3274.10;86.80
40622;DHT22;26324;52.040;11.528;2023-03-16T05:22:57;-3274.10;86.80
40622;DHT22;26324;52.040;11.528;2023-03-16T05:25:31;-3274.10;86.70
40622;DHT22;26324;52.040;11.528;2023-03-16T05:28:03;-3274.20;86.80
40622;DHT22;26324;52.040;11.528;2023-03-16T05:31:10;-3274.10;86.60
40622;DHT22;26324;52.040;11.528;2023-03-16T05:33:42;-3274.00;86.70
40622;DHT22;26324;52.040;11.528;2023-03-16T05:36:14;-3274.00;86.50
40622;DHT22;26324;52.040;11.528;2023-03-16T05:38:46;-3274.00;86.40
40622;DHT22;26324;52.040;11.528;2023-03-16T05:41:24;-3274.00;86.50
40622;DHT22;26324;52.040;11.528;2023-03-16T05:44:03;-3274.10;86.30
40622;DHT22;26324;52.040;11.528;2023-03-16T05:46:51;-3274.00;86.10
40622;DHT22;26324;52.040;11.528;2023-03-16T05:49:18;-3274.10;86.00
40622;DHT22;26324;52.040;11.528;2023-03-16T05:51:46;-3274.10;85.40
40622;DHT22;26324;52.040;11.528;2023-03-16T05:54:13;-3274.10;85.00
40622;DHT22;26324;52.040;11.528;2023-03-16T05:56:45;-3274.00;85.10
40622;DHT22;26324;52.040;11.528;2023-03-16T05:59:14;-3274.10;85.50
40622;DHT22;26324;52.040;11.528;2023-03-16T06:01:48;-3274.00;85.60
40622;DHT22;26324;52.040;11.528;2023-03-16T06:04:16;-3274.10;86.50
40622;DHT22;26324;52.040;11.528;2023-03-16T06:06:43;-3274.30;86.90
40622;DHT22;26324;52.040;11.528;2023-03-16T06:09:18;-3274.50;87.10
40622;DHT22;26324;52.040;11.528;2023-03-16T06:11:45;-3274.50;86.90
40622;DHT22;26324;52.040;11.528;2023-03-16T06:14:15;-3274.70;86.80
40622;DHT22;26324;52.040;11.528;2023-03-16T06:16:43;-3274.80;86.60
40622;DHT22;26324;52.040;11.528;2023-03-16T06:19:11;-3274.90;86.30
40622;DHT22;26324;52.040;11.528;2023-03-16T06:21:39;-3275.10;86.00
40622;DHT22;26324;52.040;11.528;2023-03-16T06:24:09;-3275.30;85.60
40622;DHT22;26324;52.040;11.528;2023-03-16T06:26:36;-3275.50;85.00
40622;DHT22;26324;52.040;11.528;2023-03-16T06:29:06;-3275.70;84.60
40622;DHT22;26324;52.040;11.528;2023-03-16T06:31:36;-3275.90;84.20
40622;DHT22;26324;52.040;11.528;2023-03-16T06:34:05;-3276.00;84.00
40622;DHT22;26324;52.040;11.528;2023-03-16T06:36:33;-3276.20;83.50
40622;DHT22;26324;52.040;11.528;2023-03-16T06:39:02;-3276.40;82.80
40622;DHT22;26324;52.040;11.528;2023-03-16T06:41:35;-3276.50;82.40
40622;DHT22;26324;52.040;11.528;2023-03-16T06:44:04;0.00;81.80
40622;DHT22;26324;52.040;11.528;2023-03-16T06:46:36;0.00;82.00
40622;DHT22;26324;52.040;11.528;2023-03-16T06:49:03;0.10;81.50
40622;DHT22;26324;52.040;11.528;2023-03-16T06:51:32;0.30;80.70
40622;DHT22;26324;52.040;11.528;2023-03-16T06:54:00;0.40;79.90
40622;DHT22;26324;52.040;11.528;2023-03-16T06:56:28;0.60;79.50
40622;DHT22;26324;52.040;11.528;2023-03-16T06:58:55;0.70;79.40
40622;DHT22;26324;52.040;11.528;2023-03-16T07:01:23;0.80;79.70
40622;DHT22;26324;52.040;11.528;2023-03-16T07:03:50;0.90;79.00
40622;DHT22;26324;52.040;11.528;2023-03-16T07:06:25;1.00;79.50
40622;DHT22;26324;52.040;11.528;2023-03-16T07:08:53;1.10;79.80
40622;DHT22;26324;52.040;11.528;2023-03-16T07:11:22;1.20;79.10
40622;DHT22;26324;52.040;11.528;2023-03-16T07:13:50;1.30;78.30
40622;DHT22;26324;52.040;11.528;2023-03-16T07:16:19;1.50;79.00
40622;DHT22;26324;52.040;11.528;2023-03-16T07:18:48;1.60;78.70
40622;DHT22;26324;52.040;11.528;2023-03-16T07:21:18;1.60;78.90
40622;DHT22;26324;52.040;11.528;2023-03-16T07:23:46;1.70;78.20
40622;DHT22;26324;52.040;11.528;2023-03-16T07:26:18;1.80;77.20
40622;DHT22;26324;52.040;11.528;2023-03-16T07:28:53;2.00;77.40
40622;DHT22;26324;52.040;11.528;2023-03-16T07:31:25;2.10;77.20
40622;DHT22;26324;52.040;11.528;2023-03-16T07:33:55;2.20;76.20
40622;DHT22;26324;52.040;11.528;2023-03-16T07:36:34;2.30;75.60
40622;DHT22;26324;52.040;11.528;2023-03-16T07:39:04;2.40;74.70
40622;DHT22;26324;52.040;11.528;2023-03-16T07:41:39;2.50;75.70
40622;DHT22;26324;52.040;11.528;2023-03-16T07:44:15;2.70;75.40
40622;DHT22;26324;52.040;11.528;2023-03-16T07:46:47;3.00;73.70
40622;DHT22;26324;52.040;11.528;2023-03-16T07:49:16;3.10;72.40
40622;DHT22;26324;52.040;11.528;2023-03-16T07:51:48;3.20;71.90
40622;DHT22;26324;52.040;11.528;2023-03-16T07:54:22;3.30;71.60
40622;DHT22;26324;52.040;11.528;2023-03-16T07:57:01;3.40;73.20
40622;DHT22;26324;52.040;11.528;2023-03-16T07:59:39;3.60;72.30
40622;DHT22;26324;52.040;11.528;2023-03-16T08:02:14;3.70;70.80
40622;DHT22;26324;52.040;11.528;2023-03-16T08:04:45;3.80;71.80
40622;DHT22;26324;52.040;11.528;2023-03-16T08:07:14;3.80;70.70
40622;DHT22;26324;52.040;11.528;2023-03-16T08:09:57;4.00;71.90
40622;DHT22;26324;52.040;11.528;2023-03-16T08:12:31;4.10;69.80
40622;DHT22;26324;52.040;11.528;2023-03-16T08:15:00;4.10;69.90
40622;DHT22;26324;52.040;11.528;2023-03-16T08:17:30;4.30;71.50
40622;DHT22;26324;52.040;11.528;2023-03-16T08:20:00;4.30;70.50
40622;DHT22;26324;52.040;11.528;2023-03-16T08:22:28;4.40;70.80
40622;DHT22;26324;52.040;11.528;2023-03-16T08:24:56;4.40;70.00
40622;DHT22;26324;52.040;11.528;2023-03-16T08:27:24;4.50;69.10
40622;DHT22;26324;52.040;11.528;2023-03-16T08:29:57;4.60;68.70
40622;DHT22;26324;52.040;11.528;2023-03-16T08:32:31;4.70;68.80
40622;DHT22;26324;52.040;11.528;2023-03-16T08:34:59;4.80;67.70
40622;DHT22;26324;52.040;11.528;2023-03-16T08:37:27;4.90;67.20
40622;DHT22;26324;52.040;11.528;2023-03-16T08:39:55;5.10;67.40
40622;DHT22;26324;52.040;11.528;2023-03-16T08:42:22;5.30;65.90
40622;DHT22;26324;52.040;11.528;2023-03-16T08:44:56;5.50;66.40
40622;DHT22;26324;52.040;11.528;2023-03-16T08:47:26;5.50;64.70
40622;DHT22;26324;52.040;11.528;2023-03-16T08:49:53;5.60;64.60
40622;DHT22;26324;52.040;11.528;2023-03-16T08:52:21;5.60;63.90
40622;DHT22;26324;52.040;11.528;2023-03-16T08:54:49;5.60;62.50
40622;DHT22;26324;52.040;11.528;2023-03-16T08:57:28;5.70;63.90
40622;DHT22;26324;52.040;11.528;2023-03-16T08:59:56;5.70;63.90
40622;DHT22;26324;52.040;11.528;2023-03-16T09:02:23;5.70;63.10
40622;DHT22;26324;52.040;11.528;2023-03-16T09:04:51;5.80;61.70
40622;DHT22;26324;52.040;11.528;2023-03-16T09:07:19;5.70;61.00
40622;DHT22;26324;52.040;11.528;2023-03-16T09:09:46;5.70;60.00
40622;DHT22;26324;52.040;11.528;2023-03-16T09:12:14;5.90;62.70
40622;DHT22;26324;52.040;11.528;2023-03-16T09:14:41;6.10;62.00
40622;DHT22;26324;52.040;11.528;2023-03-16T09:17:09;6.10;60.50
40622;DHT22;26324;52.040;11.528;2023-03-16T09:19:38;6.10;61.00
40622;DHT22;26324;52.040;11.528;2023-03-16T09:22:19;6.40;62.10
40622;DHT22;26324;52.040;11.528;2023-03-16T09:24:47;6.40;58.80
40622;DHT22;26324;52.040;11.528;2023-03-16T09:27:15;6.40;60.10
40622;DHT22;26324;52.040;11.528;2023-03-16T09:29:43;6.30;59.80
40622;DHT22;26324;52.040;11.528;2023-03-16T09:32:12;6.40;60.10
40622;DHT22;26324;52.040;11.528;2023-03-16T09:34:40;6.40;60.20
40622;DHT22;26324;52.040;11.528;2023-03-16T09:37:08;6.60;61.50
40622;DHT22;26324;52.040;11.528;2023-03-16T09:39:35;6.50;58.20
40622;DHT22;26324;52.040;11.528;2023-03-16T09:47:48;6.70;57.50
40622;DHT22;26324;52.040;11.528;2023-03-16T09:50:23;6.80;56.80
40622;DHT22;26324;52.040;11.528;2023-03-16T09:53:02;6.90;58.40
40622;DHT22;26324;52.040;11.528;2023-03-16T09:55:36;7.00;59.90
40622;DHT22;26324;52.040;11.528;2023-03-16T09:58:17;7.10;57.40
40622;DHT22;26324;52.040;11.528;2023-03-16T10:06:25;7.40;55.40
40622;DHT22;26324;52.040;11.528;2023-03-16T10:09:03;7.60;55.60
40622;DHT22;26324;52.040;11.528;2023-03-16T10:11:37;7.70;53.60
40622;DHT22;26324;52.040;11.528;2023-03-16T10:14:46;7.80;50.30
40622;DHT22;26324;52.040;11.528;2023-03-16T10:17:39;7.50;47.20
40622;DHT22;26324;52.040;11.528;2023-03-16T10:20:18;7.60;51.90
40622;DHT22;26324;52.040;11.528;2023-03-16T10:22:48;7.80;52.40
40622;DHT22;26324;52.040;11.528;2023-03-16T10:27:52;7.80;49.10
40622;DHT22;26324;52.040;11.528;2023-03-16T10:30:26;7.90;48.30
40622;DHT22;26324;52.040;11.528;2023-03-16T10:32:56;8.10;49.60
40622;DHT22;26324;52.040;11.528;2023-03-16T10:38:26;8.40;47.90
40622;DHT22;26324;52.040;11.528;2023-03-16T10:40:54;8.50;46.40
40622;DHT22;26324;52.040;11.528;2023-03-16T10:43:24;8.50;46.40
40622;DHT22;26324;52.040;11.528;2023-03-16T10:45:58;8.40;44.90
40622;DHT22;26324;52.040;11.528;2023-03-16T10:48:31;8.60;46.90
40622;DHT22;26324;52.040;11.528;2023-03-16T10:51:05;8.60;47.10
40622;DHT22;26324;52.040;11.528;2023-03-16T10:53:35;8.60;44.20
40622;DHT22;26324;52.040;11.528;2023-03-16T10:56:21;8.60;46.20
40622;DHT22;26324;52.040;11.528;2023-03-16T10:58:48;8.90;45.60
40622;DHT22;26324;52.040;11.528;2023-03-16T11:01:27;9.10;43.90
40622;DHT22;26324;52.040;11.528;2023-03-16T11:03:58;9.00;44.80
40622;DHT22;26324;52.040;11.528;2023-03-16T11:06:31;8.90;47.70
40622;DHT22;26324;52.040;11.528;2023-03-16T11:09:05;9.00;48.80
40622;DHT22;26324;52.040;11.528;2023-03-16T11:11:35;9.10;46.00
40622;DHT22;26324;52.040;11.528;2023-03-16T11:14:12;9.00;46.00
40622;DHT22;26324;52.040;11.528;2023-03-16T11:16:42;9.00;46.00
40622;DHT22;26324;52.040;11.528;2023-03-16T11:19:26;9.30;48.30
40622;DHT22;26324;52.040;11.528;2023-03-16T11:22:17;9.50;44.20
40622;DHT22;26324;52.040;11.528;2023-03-16T11:27:50;9.60;42.20
40622;DHT22;26324;52.040;11.528;2023-03-16T11:32:57;9.70;39.10
40622;DHT22;26324;52.040;11.528;2023-03-16T11:35:45;9.80;41.70
40622;DHT22;26324;52.040;11.528;2023-03-16T11:44:35;10.00;40.10
40622;DHT22;26324;52.040;11.528;2023-03-16T11:47:42;10.20;41.00
40622;DHT22;26324;52.040;11.528;2023-03-16T11:56:15;10.50;39.00
40622;DHT22;26324;52.040;11.528;2023-03-16T11:59:27;10.60;38.70
40622;DHT22;26324;52.040;11.528;2023-03-16T12:05:19;10.60;38.90
40622;DHT22;26324;52.040;11.528;2023-03-16T12:08:14;10.70;37.90
40622;DHT22;26324;52.040;11.528;2023-03-16T12:10:56;10.70;36.20
40622;DHT22;26324;52.040;11.528;2023-03-16T12:13:35;10.70;37.30
40622;DHT22;26324;52.040;11.528;2023-03-16T12:16:30;10.50;36.60
40622;DHT22;26324;52.040;11.528;2023-03-16T12:21:48;11.10;37.00
40622;DHT22;26324;52.040;11.528;2023-03-16T12:24:25;11.10;34.60
40622;DHT22;26324;52.040;11.528;2023-03-16T12:26:55;11.00;36.30
40622;DHT22;26324;52.040;11.528;2023-03-16T12:29:28;11.00;36.30
40622;DHT22;26324;52.040;11.528;2023-03-16T12:34:47;11.00;35.00
40622;DHT22;26324;52.040;11.528;2023-03-16T12:40:32;11.20;34.10
40622;DHT22;26324;52.040;11.528;2023-03-16T12:43:25;11.30;36.00
40622;DHT22;26324;52.040;11.528;2023-03-16T12:49:05;11.20;35.10
40622;DHT22;26324;52.040;11.528;2023-03-16T12:51:36;11.20;34.60
40622;DHT22;26324;52.040;11.528;2023-03-16T12:54:05;11.30;36.70
40622;DHT22;26324;52.040;11.528;2023-03-16T12:56:36;11.60;35.90
40622;DHT22;26324;52.040;11.528;2023-03-16T12:59:16;11.60;34.80
40622;DHT22;26324;52.040;11.528;2023-03-16T13:01:50;11.40;36.40
40622;DHT22;26324;52.040;11.528;2023-03-16T13:04:23;11.50;37.00
40622;DHT22;26324;52.040;11.528;2023-03-16T13:07:08;11.60;34.80
40622;DHT22;26324;52.040;11.528;2023-03-16T13:09:45;11.90;36.10
40622;DHT22;26324;52.040;11.528;2023-03-16T13:12:23;12.30;36.40
40622;DHT22;26324;52.040;11.528;2023-03-16T13:14:52;12.40;36.10
40622;DHT22;26324;52.040;11.528;2023-03-16T13:17:31;12.70;36.30
40622;DHT22;26324;52.040;11.528;2023-03-16T13:25:57;13.10;34.20
40622;DHT22;26324;52.040;11.528;2023-03-16T13:28:31;13.20;33.70
40622;DHT22;26324;52.040;11.528;2023-03-16T13:30:59;13.60;35.30
40622;DHT22;26324;52.040;11.528;2023-03-16T13:33:30;13.90;34.30
40622;DHT22;26324;52.040;11.528;2023-03-16T13:35:59;14.20;33.40
40622;DHT22;26324;52.040;11.528;2023-03-16T13:38:27;14.30;33.90
40622;DHT22;26324;52.040;11.528;2023-03-16T13:40:57;14.60;32.60
40622;DHT22;26324;52.040;11.528;2023-03-16T13:43:29;14.50;31.60
40622;DHT22;26324;52.040;11.528;2023-03-16T13:45:59;14.60;31.70
40622;DHT22;26324;52.040;11.528;2023-03-16T13:48:27;14.50;31.80
40622;DHT22;26324;52.040;11.528;2023-03-16T13:50:56;14.40;31.50
40622;DHT22;26324;52.040;11.528;2023-03-16T13:53:26;14.30;31.20
40622;DHT22;26324;52.040;11.528;2023-03-16T13:55:58;14.30;31.60
40622;DHT22;26324;52.040;11.528;2023-03-16T13:58:33;14.30;31.10
40622;DHT22;26324;52.040;11.528;2023-03-16T14:01:04;14.90;32.00
40622;DHT22;26324;52.040;11.528;2023-03-16T14:03:34;14.60;32.20
40622;DHT22;26324;52.040;11.528;2023-03-16T14:06:03;14.60;32.70
40622;DHT22;26324;52.040;11.528;2023-03-16T14:08:31;14.60;31.90
40622;DHT22;26324;52.040;11.528;2023-03-16T14:11:00;14.60;32.50
40622;DHT22;26324;52.040;11.528;2023-03-16T14:15:58;16.00;30.80
40622;DHT22;26324;52.040;11.528;2023-03-16T14:18:39;16.60;30.80
40622;DHT22;26324;52.040;11.528;2023-03-16T14:21:11;17.00;29.10
40622;DHT22;26324;52.040;11.528;2023-03-16T14:23:44;16.60;29.50
40622;DHT22;26324;52.040;11.528;2023-03-16T14:26:14;16.10;30.10
40622;DHT22;26324;52.040;11.528;2023-03-16T14:29:36;16.20;30.20
40622;DHT22;26324;52.040;11.528;2023-03-16T14:31:43;16.80;30.00
40622;DHT22;26324;52.040;11.528;2023-03-16T14:34:29;16.30;29.80
40622;DHT22;26324;52.040;11.528;2023-03-16T14:37:10;15.10;30.60
40622;DHT22;26324;52.040;11.528;2023-03-16T14:39:38;15.10;32.40
40622;DHT22;26324;52.040;11.528;2023-03-16T14:42:28;14.50;32.00
40622;DHT22;26324;52.040;11.528;2023-03-16T14:44:57;14.10;32.00
40622;DHT22;26324;52.040;11.528;2023-03-16T14:47:30;13.80;32.00
40622;DHT22;26324;52.040;11.528;2023-03-16T14:50:07;13.80;32.90
40622;DHT22;26324;52.040;11.528;2023-03-16T14:52:35;13.50;30.80
40622;DHT22;26324;52.040;11.528;2023-03-16T14:55:15;12.70;32.10
40622;DHT22;26324;52.040;11.528;2023-03-16T14:57:42;12.00;33.90
40622;DHT22;26324;52.040;11.528;2023-03-16T15:00:13;12.00;34.80
40622;DHT22;26324;52.040;11.528;2023-03-16T15:02:58;12.10;34.80
40622;DHT22;26324;52.040;11.528;2023-03-16T15:05:34;12.20;35.20
40622;DHT22;26324;52.040;11.528;2023-03-16T15:08:14;12.40;35.20
40622;DHT22;26324;52.040;11.528;2023-03-16T15:10:43;12.60;35.20
40622;DHT22;26324;52.040;11.528;2023-03-16T15:13:17;12.30;34.10
40622;DHT22;26324;52.040;11.528;2023-03-16T15:16:06;11.80;35.00
40622;DHT22;26324;52.040;11.528;2023-03-16T15:18:34;11.60;35.70
40622;DHT22;26324;52.040;11.528;2023-03-16T15:21:11;11.60;36.60
40622;DHT22;26324;52.040;11.528;2023-03-16T15:23:40;11.40;37.30
40622;DHT22;26324;52.040;11.528;2023-03-16T15:26:13;11.20;37.50
40622;DHT22;26324;52.040;11.528;2023-03-16T15:28:41;10.70;38.70
40622;DHT22;26324;52.040;11.528;2023-03-16T15:31:12;10.30;39.20
40622;DHT22;26324;52.040;11.528;2023-03-16T15:33:40;10.00;40.10
40622;DHT22;26324;52.040;11.528;2023-03-16T15:36:19;9.90;40.80
40622;DHT22;26324;52.040;11.528;2023-03-16T15:38:49;9.60;40.90
40622;DHT22;26324;52.040;11.528;2023-03-16T15:41:18;9.60;42.50
40622;DHT22;26324;52.040;11.528;2023-03-16T15:43:45;9.50;42.50
40622;DHT22;26324;52.040;11.528;2023-03-16T15:46:13;9.40;43.20
40622;DHT22;26324;52.040;11.528;2023-03-16T15:48:41;9.30;43.50
40622;DHT22;26324;52.040;11.528;2023-03-16T15:51:20;9.30;44.30
40622;DHT22;26324;52.040;11.528;2023-03-16T15:53:51;9.30;45.70
40622;DHT22;26324;52.040;11.528;2023-03-16T15:56:24;9.20;46.50
40622;DHT22;26324;52.040;11.528;2023-03-16T15:59:01;9.40;47.70
40622;DHT22;26324;52.040;11.528;2023-03-16T16:01:39;9.30;48.50
40622;DHT22;26324;52.040;11.528;2023-03-16T16:04:16;9.20;48.30
40622;DHT22;26324;52.040;11.528;2023-03-16T16:06:46;9.20;48.70
40622;DHT22;26324;52.040;11.528;2023-03-16T16:09:14;9.00;49.20
40622;DHT22;26324;52.040;11.528;2023-03-16T16:11:41;9.00;49.80
40622;DHT22;26324;52.040;11.528;2023-03-16T16:14:16;9.00;50.10
40622;DHT22;26324;52.040;11.528;2023-03-16T16:16:45;8.90;50.30
40622;DHT22;26324;52.040;11.528;2023-03-16T16:19:13;8.80;50.00
40622;DHT22;26324;52.040;11.528;2023-03-16T16:21:41;8.80;50.60
40622;DHT22;26324;52.040;11.528;2023-03-16T16:24:12;8.60;50.90
40622;DHT22;26324;52.040;11.528;2023-03-16T16:26:41;8.60;51.00
40622;DHT22;26324;52.040;11.528;2023-03-16T16:29:26;8.60;50.90
40622;DHT22;26324;52.040;11.528;2023-03-16T16:31:56;8.60;51.50
40622;DHT22;26324;52.040;11.528;2023-03-16T16:34:24;8.50;51.80